createdAt,value
2019-02-07T00:00:52.443Z,12.78
2019-02-07T00:03:21.554Z,6.37
2019-02-07T00:05:50.727Z,4.92
2019-02-07T00:08:19.947Z,5.17
2019-02-07T00:10:48.843Z,6.65
2019-02-07T00:13:17.730Z,4.75
2019-02-07T00:15:46.625Z,8.55
2019-02-07T00:18:15.719Z,5.12
2019-02-07T00:20:45.226Z,1.87
2019-02-07T00:23:14.519Z,9.85
2019-02-07T00:25:43.623Z,5.25
2019-02-07T00:28:12.623Z,6.35
2019-02-07T00:30:42.123Z,3.75
2019-02-07T00:33:11.167Z,5.40
2019-02-07T00:35:40.217Z,4.35
2019-02-07T00:38:11.358Z,3.55
2019-02-07T00:40:40.234Z,13.22
2019-02-07T00:43:09.860Z,3.92
2019-02-07T00:45:38.955Z,3.40
2019-02-07T00:48:07.950Z,2.42
2019-02-07T00:50:37.147Z,3.02
2019-02-07T00:53:06.402Z,3.08
2019-02-07T00:55:35.444Z,3.65
2019-02-07T00:58:04.628Z,6.03
2019-02-07T01:00:33.750Z,3.77
2019-02-07T01:03:02.606Z,4.80
2019-02-07T01:05:31.729Z,2.87
2019-02-07T01:08:01.008Z,8.90
2019-02-07T01:10:31.045Z,5.65
2019-02-07T01:13:00.141Z,2.47
2019-02-07T01:15:29.851Z,4.65
2019-02-07T01:17:58.830Z,3.15
2019-02-07T01:20:28.175Z,4.90
2019-02-07T01:22:57.755Z,5.33
2019-02-07T01:25:27.048Z,2.05
2019-02-07T01:27:56.049Z,5.80
2019-02-07T01:30:29.345Z,3.05
2019-02-07T01:32:58.337Z,3.45
2019-02-07T01:35:27.217Z,7.92
2019-02-07T01:37:56.941Z,7.60
2019-02-07T01:40:25.934Z,5.95
2019-02-07T01:42:55.850Z,11.30
2019-02-07T01:45:25.564Z,8.03
2019-02-07T01:47:54.453Z,9.40
2019-02-07T01:50:24.958Z,5.75
2019-02-07T01:52:54.899Z,5.67
2019-02-07T01:55:23.878Z,5.30
2019-02-07T01:57:52.886Z,2.45
2019-02-07T02:00:21.881Z,4.03
2019-02-07T02:02:51.393Z,7.05
2019-02-07T02:05:21.888Z,2.52
2019-02-07T02:07:51.361Z,10.40
2019-02-07T02:10:30.144Z,7.35
2019-02-07T02:12:58.971Z,5.85
2019-02-07T02:15:28.222Z,6.53
2019-02-07T02:17:57.540Z,3.60
2019-02-07T02:20:27.248Z,12.23
2019-02-07T02:22:57.165Z,2.52
2019-02-07T02:25:26.668Z,5.47
2019-02-07T02:27:55.764Z,1.02
2019-02-07T02:30:33.109Z,3.42
2019-02-07T02:33:02.642Z,3.60
2019-02-07T02:35:31.771Z,7.58
2019-02-07T02:38:00.766Z,6.50
2019-02-07T02:40:29.830Z,4.70
2019-02-07T02:42:58.740Z,5.67
2019-02-07T02:45:37.270Z,9.10
2019-02-07T02:47:58.880Z,4.35
2019-02-07T02:50:28.282Z,1.77
2019-02-07T02:52:57.179Z,6.33
2019-02-07T02:55:36.412Z,6.90
2019-02-07T02:58:06.120Z,9.58
2019-02-07T03:00:48.631Z,3.60
2019-02-07T03:03:21.924Z,9.08
2019-02-07T03:06:08.634Z,6.17
2019-02-07T03:08:39.676Z,7.12
2019-02-07T03:11:25.575Z,3.47
2019-02-07T03:13:59.190Z,2.10
2019-02-07T03:16:32.859Z,2.60
2019-02-07T03:19:06.270Z,5.70
2019-02-07T03:21:36.683Z,6.28
2019-02-07T03:24:10.505Z,2.70
2019-02-07T03:26:41.039Z,2.05
2019-02-07T03:29:11.572Z,2.67
2019-02-07T03:31:45.270Z,1.02
2019-02-07T03:34:24.755Z,3.60
2019-02-07T03:37:04.455Z,2.87
2019-02-07T03:39:41.333Z,2.87
2019-02-07T03:42:12.993Z,5.12
2019-02-07T03:44:49.162Z,2.67
2019-02-07T03:47:19.681Z,3.50
2019-02-07T03:50:02.209Z,4.60
2019-02-07T03:52:35.652Z,2.00
2019-02-07T03:55:23.507Z,3.45
2019-02-07T03:58:03.022Z,5.85
2019-02-07T04:00:33.601Z,6.90
2019-02-07T04:03:19.079Z,2.30
2019-02-07T04:05:52.357Z,4.95
2019-02-07T04:08:39.162Z,2.60
2019-02-07T04:11:09.652Z,2.55
2019-02-07T04:13:55.589Z,2.22
2019-02-07T04:16:35.344Z,3.02
2019-02-07T04:19:05.766Z,6.08
2019-02-07T04:21:49.341Z,6.08
2019-02-07T04:24:20.161Z,9.08
2019-02-07T04:26:50.682Z,7.22
2019-02-07T04:29:21.315Z,6.75
2019-02-07T04:32:06.798Z,6.92
2019-02-07T04:34:37.329Z,2.98
2019-02-07T04:37:10.727Z,3.22
2019-02-07T04:39:44.331Z,5.15
2019-02-07T04:42:20.854Z,7.17
2019-02-07T04:44:51.436Z,9.08
2019-02-07T04:47:22.756Z,3.40
2019-02-07T04:50:02.523Z,6.20
2019-02-07T04:52:45.135Z,2.20
2019-02-07T04:55:15.872Z,6.30
2019-02-07T04:57:52.442Z,6.90
2019-02-07T05:00:38.130Z,3.42
2019-02-07T05:03:08.637Z,2.37
2019-02-07T05:05:39.334Z,0.72
2019-02-07T05:08:26.826Z,2.47
2019-02-07T05:11:15.473Z,2.92
2019-02-07T05:13:55.126Z,4.05
2019-02-07T05:16:39.221Z,8.85
2019-02-07T05:19:20.141Z,1.60
2019-02-07T05:21:54.561Z,6.10
2019-02-07T05:24:34.102Z,1.87
2019-02-07T05:27:05.554Z,5.10
2019-02-07T05:29:42.236Z,3.92
2019-02-07T05:32:22.163Z,2.35
2019-02-07T05:34:55.838Z,9.68
2019-02-07T05:37:42.778Z,11.73
2019-02-07T05:40:16.810Z,2.42
2019-02-07T05:42:47.341Z,5.70
2019-02-07T05:45:32.806Z,9.20
2019-02-07T05:48:03.350Z,10.88
2019-02-07T05:50:40.643Z,2.58
2019-02-07T05:53:20.179Z,2.65
2019-02-07T05:56:08.935Z,5.22
2019-02-07T05:58:48.477Z,3.00
2019-02-07T06:01:35.157Z,3.87
2019-02-07T06:04:06.234Z,1.80
2019-02-07T06:06:36.950Z,14.07
2019-02-07T06:09:10.511Z,7.30
2019-02-07T06:11:59.529Z,6.90
2019-02-07T06:14:46.034Z,2.08
2019-02-07T06:17:33.126Z,6.50
2019-02-07T06:20:06.668Z,6.92
2019-02-07T06:22:53.569Z,10.50
2019-02-07T06:25:26.561Z,4.78
2019-02-07T06:28:09.272Z,11.53
2019-02-07T06:30:42.871Z,2.52
2019-02-07T06:33:30.590Z,2.87
2019-02-07T06:36:04.319Z,2.90
2019-02-07T06:38:38.106Z,9.50
2019-02-07T06:41:12.537Z,7.12
2019-02-07T06:43:52.083Z,3.83
2019-02-07T06:46:26.504Z,6.40
2019-02-07T06:49:06.248Z,6.40
2019-02-07T06:51:53.264Z,4.85
2019-02-07T06:54:39.976Z,5.67
2019-02-07T06:57:19.822Z,8.23
2019-02-07T06:59:59.158Z,3.15
2019-02-07T07:02:46.380Z,2.35
2019-02-07T07:05:17.014Z,10.25
2019-02-07T07:07:53.280Z,0.80
2019-02-07T07:10:36.711Z,3.55
2019-02-07T07:13:10.314Z,9.70
2019-02-07T07:15:40.949Z,4.97
2019-02-07T07:18:23.549Z,1.47
2019-02-07T07:21:12.317Z,3.75
2019-02-07T07:23:48.783Z,4.92
2019-02-07T07:26:19.682Z,13.38
2019-02-07T07:28:59.470Z,7.30
2019-02-07T07:31:33.177Z,7.12
2019-02-07T07:34:03.807Z,2.80
2019-02-07T07:36:34.440Z,16.70
2019-02-07T07:39:24.733Z,8.48
2019-02-07T07:42:07.348Z,3.22
2019-02-07T07:44:54.157Z,2.62
2019-02-07T07:47:41.173Z,3.72
2019-02-07T07:50:30.247Z,1.72
2019-02-07T07:53:15.822Z,4.55
2019-02-07T07:55:46.351Z,6.67
2019-02-07T07:58:22.494Z,4.37
2019-02-07T08:01:02.041Z,4.62
2019-02-07T08:03:35.263Z,3.77
2019-02-07T08:06:05.984Z,5.45
2019-02-07T08:08:39.218Z,5.60
2019-02-07T08:11:18.927Z,4.97
2019-02-07T08:14:04.429Z,5.60
2019-02-07T08:16:35.037Z,6.65
2019-02-07T08:19:17.660Z,16.30
2019-02-07T08:21:48.282Z,6.33
2019-02-07T08:24:35.708Z,4.50
2019-02-07T08:27:06.445Z,9.85
2019-02-07T08:29:52.023Z,5.25
2019-02-07T08:32:31.466Z,4.55
2019-02-07T08:35:20.836Z,5.40
2019-02-07T08:37:58.124Z,7.60
2019-02-07T08:40:28.863Z,7.70
2019-02-07T08:43:08.361Z,11.55
2019-02-07T08:45:39.139Z,11.68
2019-02-07T08:48:25.951Z,13.43
2019-02-07T08:50:56.478Z,12.35
2019-02-07T08:53:32.640Z,7.58
2019-02-07T08:56:14.740Z,3.17
2019-02-07T08:58:45.142Z,8.43
2019-02-07T09:01:21.743Z,5.25
2019-02-07T09:04:04.252Z,5.92
2019-02-07T09:06:49.634Z,13.45
2019-02-07T09:09:20.264Z,2.75
2019-02-07T09:11:50.682Z,8.45
2019-02-07T09:14:21.323Z,4.70
2019-02-07T09:16:55.026Z,3.22
2019-02-07T09:19:31.906Z,9.43
2019-02-07T09:22:08.473Z,4.22
2019-02-07T09:24:55.730Z,6.72
2019-02-07T09:27:38.006Z,6.15
2019-02-07T09:30:17.544Z,8.83
2019-02-07T09:32:54.223Z,3.92
2019-02-07T09:35:41.647Z,2.75
2019-02-07T09:38:28.768Z,6.05
2019-02-07T09:41:02.052Z,4.28
2019-02-07T09:43:45.589Z,4.53
2019-02-07T09:46:34.661Z,12.43
2019-02-07T09:49:20.466Z,5.62
2019-02-07T09:52:07.570Z,9.00
2019-02-07T09:54:40.955Z,7.28
2019-02-07T09:57:18.052Z,2.65
2019-02-07T09:59:48.819Z,1.27
2019-02-07T10:02:22.491Z,6.15
2019-02-07T10:04:53.223Z,15.45
2019-02-07T10:07:27.029Z,2.62
2019-02-07T10:10:09.339Z,10.98
2019-02-07T10:12:56.340Z,3.92
2019-02-07T10:15:42.756Z,7.95
2019-02-07T10:18:13.906Z,12.10
2019-02-07T10:20:47.655Z,8.88
2019-02-07T10:23:18.225Z,10.55
2019-02-07T10:26:05.357Z,12.45
2019-02-07T10:28:39.176Z,6.65
2019-02-07T10:31:19.115Z,6.22
2019-02-07T10:34:05.825Z,7.42
2019-02-07T10:36:36.264Z,5.75
2019-02-07T10:39:12.825Z,7.67
2019-02-07T10:41:59.126Z,4.72
2019-02-07T10:44:39.074Z,7.15
2019-02-07T10:47:26.295Z,9.88
2019-02-07T10:50:09.116Z,13.03
2019-02-07T10:52:40.150Z,6.78
2019-02-07T10:55:23.693Z,8.33
2019-02-07T10:57:54.739Z,8.58
2019-02-07T11:00:42.467Z,15.48
2019-02-07T11:03:21.888Z,11.10
2019-02-07T11:06:08.921Z,9.83
2019-02-07T11:08:49.896Z,8.48
2019-02-07T11:11:26.572Z,8.08
2019-02-07T11:13:57.327Z,7.22
2019-02-07T11:16:34.084Z,5.58
2019-02-07T11:19:21.699Z,7.22
2019-02-07T11:21:52.576Z,11.85
2019-02-07T11:24:25.615Z,5.92
2019-02-07T11:27:12.699Z,6.70
2019-02-07T11:29:46.663Z,5.25
2019-02-07T11:32:32.645Z,7.55
2019-02-07T11:35:12.614Z,2.75
2019-02-07T11:38:01.888Z,7.87
2019-02-07T11:40:47.472Z,5.67
2019-02-07T11:43:18.407Z,10.48
2019-02-07T11:45:52.111Z,9.93
2019-02-07T11:48:23.154Z,15.43
2019-02-07T11:50:53.788Z,12.33
2019-02-07T11:53:27.600Z,14.00
2019-02-07T11:56:04.359Z,14.00
2019-02-07T11:58:53.534Z,7.20
2019-02-07T12:01:33.079Z,5.55
2019-02-07T12:04:20.197Z,13.65
2019-02-07T12:06:58.919Z,8.55
2019-02-07T12:09:32.403Z,15.65
2019-02-07T12:12:19.338Z,5.03
2019-02-07T12:15:02.828Z,13.72
2019-02-07T12:17:33.616Z,12.45
2019-02-07T12:20:20.620Z,16.07
2019-02-07T12:22:54.690Z,9.88
2019-02-07T12:25:25.371Z,10.43
2019-02-07T12:27:56.825Z,10.23
2019-02-07T12:30:30.936Z,16.62
2019-02-07T12:33:17.341Z,15.28
2019-02-07T12:35:54.215Z,6.62
2019-02-07T12:38:27.821Z,15.32
2019-02-07T12:41:07.988Z,17.40
2019-02-07T12:43:38.607Z,6.80
2019-02-07T12:46:15.490Z,10.05
2019-02-07T12:48:55.333Z,11.50
2019-02-07T12:51:31.904Z,11.97
2019-02-07T12:54:06.331Z,14.83
2019-02-07T12:56:39.928Z,12.15
2019-02-07T12:59:26.042Z,10.85
2019-02-07T13:01:59.839Z,8.80
2019-02-07T13:04:30.571Z,9.17
2019-02-07T13:07:07.373Z,9.68
2019-02-07T13:09:38.297Z,11.28
2019-02-07T13:12:23.068Z,17.00
2019-02-07T13:15:03.055Z,14.87
2019-02-07T13:17:52.084Z,3.08
2019-02-07T13:20:28.144Z,8.00
2019-02-07T13:23:15.568Z,2.70
2019-02-07T13:25:49.068Z,12.78
2019-02-07T13:28:34.344Z,6.40
2019-02-07T13:31:14.104Z,9.90
2019-02-07T13:33:44.808Z,7.22
2019-02-07T13:36:31.425Z,15.15
2019-02-07T13:39:01.955Z,3.98
2019-02-07T13:41:32.427Z,15.05
2019-02-07T13:44:02.883Z,10.50
2019-02-07T13:46:40.292Z,11.12
2019-02-07T13:49:16.946Z,8.78
2019-02-07T13:52:00.000Z,23.77
2019-02-07T13:54:33.392Z,13.08
2019-02-07T13:57:09.957Z,15.68
2019-02-07T13:59:41.102Z,7.05
2019-02-07T14:02:15.092Z,12.68
2019-02-07T14:04:51.481Z,12.75
2019-02-07T14:07:31.037Z,17.27
2019-02-07T14:10:13.704Z,5.55
2019-02-07T14:12:56.352Z,15.95
2019-02-07T14:15:29.504Z,18.50
2019-02-07T14:18:09.699Z,15.60
2019-02-07T14:20:58.474Z,9.25
2019-02-07T14:23:29.886Z,13.45
2019-02-07T14:26:06.589Z,13.32
2019-02-07T14:28:37.241Z,16.15
2019-02-07T14:31:11.827Z,7.80
2019-02-07T14:33:45.102Z,13.78
2019-02-07T14:36:34.024Z,20.12
2019-02-07T14:39:13.748Z,24.67
2019-02-07T14:41:54.251Z,9.50
2019-02-07T14:44:24.842Z,11.03
2019-02-07T14:46:53.834Z,15.72
2019-02-07T14:49:22.742Z,19.92
2019-02-07T14:51:51.928Z,25.15
2019-02-07T14:54:21.248Z,17.52
2019-02-07T14:56:51.015Z,18.67
2019-02-07T14:59:20.052Z,17.83
2019-02-07T15:01:49.132Z,14.30
2019-02-07T15:04:18.333Z,15.00
2019-02-07T15:06:47.396Z,13.22
2019-02-07T15:09:16.627Z,27.67
2019-02-07T15:11:45.625Z,22.70
2019-02-07T15:14:14.312Z,20.00
2019-02-07T15:16:43.509Z,15.38
2019-02-07T15:19:14.449Z,20.77
2019-02-07T15:21:43.414Z,18.45
2019-02-07T15:24:12.656Z,26.35
2019-02-07T15:26:41.352Z,12.23
2019-02-07T15:29:10.658Z,23.42
2019-02-07T15:31:39.489Z,21.20
2019-02-07T15:34:08.605Z,19.07
2019-02-07T15:36:37.921Z,23.35
2019-02-07T15:39:09.369Z,17.87
2019-02-07T15:41:38.364Z,29.33
2019-02-07T15:44:07.826Z,20.17
2019-02-07T15:46:36.768Z,15.18
2019-02-07T15:49:05.639Z,14.03
2019-02-07T15:51:34.496Z,17.12
2019-02-07T15:54:04.265Z,18.87
2019-02-07T15:56:33.184Z,19.33
2019-02-07T15:59:20.057Z,17.07
2019-02-07T16:01:53.457Z,24.03
2019-02-07T16:04:24.264Z,25.10
2019-02-07T16:06:53.158Z,18.83
2019-02-07T16:09:21.922Z,27.47
2019-02-07T16:11:51.864Z,20.07
2019-02-07T16:14:21.269Z,17.30
2019-02-07T16:16:50.231Z,19.65
2019-02-07T16:19:19.495Z,19.60
2019-02-07T16:21:48.483Z,18.27
2019-02-07T16:24:17.695Z,20.08
2019-02-07T16:26:46.702Z,23.80
2019-02-07T16:29:15.610Z,20.70
2019-02-07T16:31:44.735Z,17.67
2019-02-07T16:34:14.417Z,22.27
2019-02-07T16:36:43.612Z,17.33
2019-02-07T16:39:12.737Z,21.97
2019-02-07T16:41:41.489Z,22.90
2019-02-07T16:44:10.355Z,27.60
2019-02-07T16:46:39.665Z,23.35
2019-02-07T16:49:09.056Z,20.65
2019-02-07T16:51:38.258Z,18.37
2019-02-07T16:54:08.854Z,19.50
2019-02-07T16:56:37.929Z,19.05
2019-02-07T16:59:08.065Z,20.92
2019-02-07T17:01:37.840Z,21.83
2019-02-07T17:04:07.417Z,13.75
2019-02-07T17:06:36.293Z,21.70
2019-02-07T17:09:09.922Z,22.67
2019-02-07T17:11:39.026Z,24.70
2019-02-07T17:14:08.314Z,21.40
2019-02-07T17:16:37.390Z,23.00
2019-02-07T17:19:06.511Z,20.30
2019-02-07T17:21:35.392Z,25.53
2019-02-07T17:24:04.262Z,17.30
2019-02-07T17:26:33.102Z,15.23
2019-02-07T17:29:01.972Z,18.43
2019-02-07T17:31:31.277Z,20.97
2019-02-07T17:34:00.612Z,22.53
2019-02-07T17:36:29.470Z,25.32
2019-02-07T17:38:58.782Z,22.73
2019-02-07T17:41:28.666Z,17.53
2019-02-07T17:43:57.681Z,20.12
2019-02-07T17:46:26.550Z,18.90
2019-02-07T17:48:55.783Z,27.15
2019-02-07T17:51:24.532Z,26.27
2019-02-07T17:53:53.553Z,20.53
2019-02-07T17:56:22.411Z,22.27
2019-02-07T17:58:51.477Z,24.93
2019-02-07T18:01:20.509Z,23.60
2019-02-07T18:03:49.437Z,23.37
2019-02-07T18:06:18.278Z,23.47
2019-02-07T18:08:47.218Z,21.17
2019-02-07T18:11:16.061Z,25.87
2019-02-07T18:13:44.856Z,33.37
2019-02-07T18:16:13.642Z,22.13
2019-02-07T18:18:43.263Z,24.43
2019-02-07T18:21:12.485Z,16.93
2019-02-07T18:23:41.451Z,20.20
2019-02-07T18:26:10.225Z,21.07
2019-02-07T18:28:41.786Z,18.37
2019-02-07T18:31:10.684Z,19.10
2019-02-07T18:33:41.217Z,16.70
2019-02-07T18:36:10.140Z,21.30
2019-02-07T18:38:38.897Z,20.73
2019-02-07T18:41:07.821Z,21.43
2019-02-07T18:43:36.784Z,24.27
2019-02-07T18:46:05.980Z,13.93
2019-02-07T18:48:34.739Z,20.80
2019-02-07T18:51:03.947Z,20.40
2019-02-07T18:53:32.708Z,20.10
2019-02-07T18:56:01.472Z,20.87
2019-02-07T18:58:30.572Z,20.63
2019-02-07T19:00:59.454Z,20.63
2019-02-07T19:03:28.260Z,19.07
2019-02-07T19:05:57.149Z,20.13
2019-02-07T19:08:26.434Z,20.23
2019-02-07T19:10:55.655Z,21.33
2019-02-07T19:13:24.401Z,21.17
2019-02-07T19:15:56.795Z,18.00
2019-02-07T19:18:26.960Z,24.23
2019-02-07T19:20:55.904Z,26.40
2019-02-07T19:23:25.231Z,17.10
2019-02-07T19:25:54.024Z,16.53
2019-02-07T19:28:23.118Z,16.77
2019-02-07T19:30:51.987Z,20.87
2019-02-07T19:33:22.576Z,15.10
2019-02-07T19:35:53.022Z,16.27
2019-02-07T19:38:22.142Z,17.37
2019-02-07T19:40:53.261Z,16.57
2019-02-07T19:43:22.231Z,19.67
2019-02-07T19:45:51.064Z,19.93
2019-02-07T19:48:19.966Z,15.87
2019-02-07T19:50:48.856Z,20.48
2019-02-07T19:53:19.690Z,14.28
2019-02-07T19:55:48.812Z,18.43
2019-02-07T19:58:17.945Z,16.43
2019-02-07T20:00:46.902Z,14.43
2019-02-07T20:03:17.597Z,17.57
2019-02-07T20:05:46.071Z,17.55
2019-02-07T20:08:15.177Z,12.40
2019-02-07T20:10:43.852Z,10.10
2019-02-07T20:13:12.719Z,13.43
2019-02-07T20:15:43.304Z,18.70
2019-02-07T20:18:12.846Z,19.15
2019-02-07T20:20:42.469Z,44.30
2019-02-07T20:23:11.813Z,19.97
2019-02-07T20:25:40.997Z,21.45
2019-02-07T20:28:09.839Z,18.67
2019-02-07T20:30:40.852Z,16.67
2019-02-07T20:33:10.080Z,16.03
2019-02-07T20:35:39.389Z,20.00
2019-02-07T20:38:09.297Z,16.63
2019-02-07T20:40:38.154Z,20.80
2019-02-07T20:43:07.454Z,25.83
2019-02-07T20:45:36.508Z,10.27
2019-02-07T20:48:06.576Z,21.12
2019-02-07T20:50:35.487Z,22.50
2019-02-07T20:53:05.295Z,13.22
2019-02-07T20:55:34.355Z,23.07
2019-02-07T20:58:04.218Z,18.57
2019-02-07T21:00:35.004Z,17.33
2019-02-07T21:03:04.111Z,16.70
2019-02-07T21:05:33.606Z,16.93
2019-02-07T21:08:02.734Z,18.87
2019-02-07T21:10:36.392Z,13.40
2019-02-07T21:13:06.412Z,15.93
2019-02-07T21:15:35.812Z,13.58
2019-02-07T21:18:05.170Z,18.32
2019-02-07T21:20:34.269Z,16.32
2019-02-07T21:23:03.071Z,14.50
2019-02-07T21:25:49.234Z,16.67
2019-02-07T21:28:18.768Z,16.95
2019-02-07T21:30:54.242Z,10.08
2019-02-07T21:33:25.095Z,14.80
2019-02-07T21:35:55.891Z,27.42
2019-02-07T21:38:26.525Z,18.87
2019-02-07T21:40:56.029Z,16.47
2019-02-07T21:43:25.129Z,16.48
2019-02-07T21:45:54.631Z,17.48
2019-02-07T21:48:25.572Z,14.58
2019-02-07T21:50:54.745Z,13.83
2019-02-07T21:53:24.097Z,16.65
2019-02-07T21:55:53.184Z,15.57
2019-02-07T21:58:22.264Z,20.20
2019-02-07T22:00:51.567Z,22.83
2019-02-07T22:03:20.826Z,19.00
2019-02-07T22:05:50.168Z,16.05
2019-02-07T22:08:20.204Z,19.02
2019-02-07T22:10:49.384Z,18.52
2019-02-07T22:13:18.588Z,16.67
2019-02-07T22:15:47.686Z,14.30
2019-02-07T22:18:18.522Z,19.87
2019-02-07T22:20:47.722Z,17.00
2019-02-07T22:23:16.707Z,17.23
2019-02-07T22:25:45.810Z,16.23
2019-02-07T22:28:15.114Z,12.85
2019-02-07T22:30:44.212Z,22.13
2019-02-07T22:33:14.424Z,16.32
2019-02-07T22:35:43.835Z,19.52
2019-02-07T22:38:12.856Z,19.95
2019-02-07T22:40:41.820Z,16.77
2019-02-07T22:43:11.329Z,18.23
2019-02-07T22:45:40.529Z,22.25
2019-02-07T22:48:09.909Z,16.57
2019-02-07T22:50:39.029Z,17.12
2019-02-07T22:53:08.023Z,16.87
2019-02-07T22:55:37.740Z,23.52
2019-02-07T22:58:07.553Z,16.23
2019-02-07T23:00:45.351Z,21.68
2019-02-07T23:03:22.133Z,10.88
2019-02-07T23:05:51.468Z,17.13
2019-02-07T23:08:20.525Z,21.60
2019-02-07T23:10:49.619Z,20.17
2019-02-07T23:13:18.717Z,13.83
2019-02-07T23:15:47.827Z,20.97
2019-02-07T23:18:17.012Z,16.23
2019-02-07T23:20:46.315Z,11.60
2019-02-07T23:23:15.515Z,19.77
2019-02-07T23:25:44.912Z,21.33
2019-02-07T23:28:14.012Z,22.97
2019-02-07T23:30:42.986Z,18.97
2019-02-07T23:33:11.937Z,17.60
2019-02-07T23:35:40.997Z,14.35
2019-02-07T23:38:10.094Z,15.80
2019-02-07T23:40:39.802Z,11.70
2019-02-07T23:43:09.436Z,17.37
2019-02-07T23:45:38.613Z,14.23
2019-02-07T23:48:07.827Z,16.07
2019-02-07T23:50:36.803Z,12.33
2019-02-07T23:53:14.311Z,14.25
2019-02-07T23:55:36.852Z,14.98
2019-02-07T23:58:06.144Z,15.93
